Time;durP1;ratioP1;P1;durP2;ratioP2;P2;SDS_P1;SDS_P2;PMS_P1;PMS_P2;Temp;Humidity;BMP_temperature;BMP_pressure;BME280_temperature;BME280_humidity;BME280_pressure;Samples;Min_cycle;Max_cycle;Signal;HPM_P1;HPM_P2
2023/07/20 00:00:58;;;;;;;1.10;0.90;;;24.70;92.00;;;;;;5073328;28;20503;-91
2023/07/20 00:03:25;;;;;;;1.20;0.90;;;24.70;92.00;;;;;;5073000;28;20485;-92
2023/07/20 00:09:13;;;;;;;1.50;1.40;;;24.70;91.90;;;;;;5073477;28;20435;-91
2023/07/20 00:11:53;;;;;;;1.27;1.17;;;24.60;91.90;;;;;;5076152;28;20441;-91
2023/07/20 00:14:21;;;;;;;1.30;1.10;;;24.70;91.90;;;;;;5077666;28;20464;-91
2023/07/20 00:16:55;;;;;;;1.40;1.10;;;24.60;91.90;;;;;;5077210;28;20440;-92
2023/07/20 00:19:22;;;;;;;1.30;1.10;;;24.70;92.00;;;;;;5076449;28;20490;-92
2023/07/20 00:21:49;;;;;;;1.10;0.90;;;24.70;92.00;;;;;;5076348;28;20443;-91
2023/07/20 00:24:16;;;;;;;1.10;1.00;;;24.70;92.00;;;;;;5076675;28;20449;-92
2023/07/20 00:26:43;;;;;;;1.27;1.10;;;24.70;92.00;;;;;;5077339;28;20448;-92
2023/07/20 00:29:10;;;;;;;1.50;1.10;;;24.70;92.00;;;;;;5077579;28;20838;-91
2023/07/20 00:31:38;;;;;;;1.30;1.10;;;24.70;92.00;;;;;;5076588;28;20448;-92
2023/07/20 00:34:05;;;;;;;1.20;1.00;;;24.70;92.00;;;;;;5076546;28;20553;-91
2023/07/20 00:36:32;;;;;;;1.30;1.00;;;24.60;91.90;;;;;;5076125;28;20484;-92
2023/07/20 00:38:59;;;;;;;1.13;1.00;;;24.70;92.10;;;;;;5076418;28;20444;-92
2023/07/20 00:41:29;;;;;;;1.13;0.90;;;24.70;92.00;;;;;;5076511;28;20475;-92
2023/07/20 00:43:56;;;;;;;1.20;1.00;;;24.60;91.90;;;;;;5076240;28;20493;-92
2023/07/20 00:46:23;;;;;;;1.30;1.20;;;24.70;92.00;;;;;;5068075;28;20523;-91
2023/07/20 00:48:52;;;;;;;1.30;1.03;;;24.60;92.00;;;;;;5076247;28;20440;-92
2023/07/20 00:51:19;;;;;;;1.20;1.00;;;24.60;92.10;;;;;;5076006;28;20943;-91
2023/07/20 00:53:47;;;;;;;1.60;1.10;;;24.60;92.00;;;;;;5076639;28;20443;-92
2023/07/20 00:56:13;;;;;;;1.23;1.10;;;24.60;92.00;;;;;;5076292;28;20452;-91
2023/07/20 00:58:40;;;;;;;1.10;1.00;;;24.60;92.00;;;;;;5076135;28;20478;-92
2023/07/20 01:01:07;;;;;;;1.20;1.10;;;24.70;92.00;;;;;;5075717;28;20437;-91
2023/07/20 01:03:34;;;;;;;1.10;1.00;;;24.60;92.00;;;;;;5075680;28;20571;-91
2023/07/20 01:06:10;;;;;;;1.10;0.90;;;24.70;92.20;;;;;;5075996;28;20487;-92
2023/07/20 01:08:44;;;;;;;1.10;1.00;;;24.60;92.10;;;;;;5075705;28;20941;-91
2023/07/20 01:11:17;;;;;;;1.20;1.10;;;24.60;92.10;;;;;;5075898;28;20503;-91
2023/07/20 01:13:45;;;;;;;1.20;1.10;;;24.70;92.30;;;;;;5075977;28;20421;-91
2023/07/20 01:16:12;;;;;;;1.10;0.90;;;24.60;92.20;;;;;;5076646;28;20986;-92
2023/07/20 01:18:39;;;;;;;1.80;1.30;;;24.60;92.20;;;;;;5075845;28;20527;-91
2023/07/20 01:21:13;;;;;;;1.20;1.00;;;24.60;92.20;;;;;;5076022;28;20869;-91
2023/07/20 01:24:25;;;;;;;1.10;1.00;;;24.60;92.40;;;;;;5075432;28;20466;-92
2023/07/20 01:27:17;;;;;;;2.10;1.30;;;24.60;92.30;;;;;;5075580;28;20495;-92
2023/07/20 01:29:56;;;;;;;1.20;0.87;;;24.60;92.20;;;;;;5076200;28;20443;-91
2023/07/20 01:32:26;;;;;;;1.30;1.00;;;24.60;92.20;;;;;;5075607;28;20433;-91
2023/07/20 01:34:54;;;;;;;1.30;1.00;;;24.60;92.40;;;;;;5075623;28;21027;-91
2023/07/20 01:37:25;;;;;;;1.10;1.00;;;24.60;92.40;;;;;;5075548;28;20568;-91
2023/07/20 01:39:55;;;;;;;1.10;0.90;;;24.60;92.30;;;;;;5075768;28;20449;-92
2023/07/20 01:42:23;;;;;;;1.30;1.20;;;24.60;92.40;;;;;;5075234;28;20843;-91
2023/07/20 01:44:52;;;;;;;1.57;1.10;;;24.60;92.50;;;;;;5075153;28;20836;-91
2023/07/20 01:47:19;;;;;;;1.40;1.20;;;24.60;92.50;;;;;;5074898;28;20958;-91
2023/07/20 01:49:47;;;;;;;1.10;0.80;;;24.60;92.30;;;;;;5076162;28;20455;-91
2023/07/20 01:52:15;;;;;;;1.20;1.00;;;24.60;92.20;;;;;;5075085;28;20448;-91
2023/07/20 01:54:41;;;;;;;1.20;1.10;;;24.60;92.20;;;;;;5074927;28;20454;-91
2023/07/20 01:57:08;;;;;;;1.20;1.10;;;24.60;92.20;;;;;;5074745;28;20452;-91
2023/07/20 01:59:35;;;;;;;1.20;1.07;;;24.60;92.10;;;;;;5074916;28;20540;-91
2023/07/20 02:02:02;;;;;;;1.20;1.00;;;24.60;92.00;;;;;;5074808;28;20535;-91
2023/07/20 02:04:29;;;;;;;1.20;1.10;;;24.60;92.10;;;;;;5074770;28;20484;-91
2023/07/20 02:06:57;;;;;;;1.60;1.20;;;24.50;92.10;;;;;;5074707;28;20446;-92
2023/07/20 02:09:24;;;;;;;1.37;1.20;;;24.60;92.30;;;;;;5074495;28;20432;-91
2023/07/20 02:11:51;;;;;;;1.07;0.90;;;24.60;92.10;;;;;;5074359;28;20437;-91
2023/07/20 02:14:18;;;;;;;1.67;1.10;;;24.70;92.40;;;;;;5074490;28;20464;-91
2023/07/20 02:16:44;;;;;;;1.20;1.00;;;24.60;92.30;;;;;;5074722;28;20446;-91
2023/07/20 02:19:11;;;;;;;1.37;1.27;;;24.60;92.20;;;;;;5075246;28;20866;-91
2023/07/20 02:21:38;;;;;;;1.27;1.00;;;24.50;92.20;;;;;;5074321;28;20537;-91
2023/07/20 02:24:07;;;;;;;1.10;0.90;;;24.50;92.30;;;;;;5074142;28;20574;-91
2023/07/20 02:26:34;;;;;;;1.27;1.13;;;24.60;92.30;;;;;;5074072;28;20531;-92
2023/07/20 02:29:01;;;;;;;1.30;1.10;;;24.60;92.40;;;;;;5074138;28;20447;-92
2023/07/20 02:31:28;;;;;;;1.10;1.00;;;24.60;92.30;;;;;;5074840;28;20805;-91
2023/07/20 02:33:55;;;;;;;1.30;1.20;;;24.50;92.40;;;;;;5073253;28;20442;-92
2023/07/20 02:36:22;;;;;;;1.20;1.07;;;24.50;92.30;;;;;;5074166;28;20566;-91
2023/07/20 02:39:14;;;;;;;1.20;1.10;;;24.60;92.30;;;;;;5074508;28;20460;-93
2023/07/20 02:42:27;;;;;;;1.30;1.10;;;24.60;92.40;;;;;;5074617;28;20462;-94
2023/07/20 02:48:54;;;;;;;1.10;0.90;;;24.40;92.30;;;;;;5068127;28;20429;-95
2023/07/20 03:22:24;;;;;;;1.10;1.00;;;24.50;92.20;;;;;;4953666;29;20941;-94
2023/07/20 04:39:01;;;;;;;;;;;;;;;;;;;;;
2023/07/20 05:12:54;;;;;;;1.40;1.10;;;24.40;92.50;;;;;;5265687;23;20482;-94
2023/07/20 05:15:25;;;;;;;1.50;1.40;;;24.50;92.50;;;;;;4959692;29;20826;-94
2023/07/20 06:09:07;;;;;;;1.90;1.70;;;24.50;93.30;;;;;;4956588;28;20585;-94
2023/07/20 06:11:34;;;;;;;4.17;2.07;;;24.70;93.70;;;;;;4957082;29;20241;-87
2023/07/20 06:14:01;;;;;;;1.90;1.70;;;24.60;93.90;;;;;;4956277;29;20561;-93
2023/07/20 06:16:28;;;;;;;3.43;1.50;;;24.60;93.60;;;;;;4957113;29;20711;-94
2023/07/20 06:18:54;;;;;;;1.53;1.43;;;24.60;93.70;;;;;;4957811;29;20792;-93
2023/07/20 06:21:21;;;;;;;1.33;1.23;;;24.50;93.50;;;;;;4956941;29;20551;-95
2023/07/20 06:23:48;;;;;;;1.40;1.30;;;24.50;93.60;;;;;;4957063;29;20574;-93
2023/07/20 06:26:16;;;;;;;2.53;1.50;;;24.50;93.50;;;;;;4939925;29;20497;-87
2023/07/20 06:28:43;;;;;;;1.50;1.40;;;24.50;93.70;;;;;;4955948;29;20460;-87
2023/07/20 06:31:10;;;;;;;1.40;0.97;;;24.50;93.60;;;;;;4942712;29;20539;-92
2023/07/20 06:33:37;;;;;;;2.60;2.30;;;24.50;93.70;;;;;;4937392;29;20534;-93
2023/07/20 06:36:05;;;;;;;2.03;1.93;;;24.60;93.90;;;;;;4937956;29;20534;-92
2023/07/20 06:38:31;;;;;;;3.03;2.73;;;24.60;94.30;;;;;;4937803;29;20450;-93
2023/07/20 06:40:58;;;;;;;3.30;2.73;;;24.50;94.70;;;;;;4937126;29;20808;-93
2023/07/20 06:43:27;;;;;;;2.70;2.50;;;24.40;94.90;;;;;;4937112;29;20919;-92
2023/07/20 06:45:54;;;;;;;3.53;2.67;;;24.30;94.90;;;;;;4937039;29;20549;-93
2023/07/20 06:48:22;;;;;;;3.00;2.20;;;24.20;95.00;;;;;;4937078;29;20452;-93
2023/07/20 06:50:49;;;;;;;2.43;1.80;;;24.10;95.00;;;;;;4937248;29;20484;-92
2023/07/20 06:53:15;;;;;;;2.10;1.90;;;24.00;95.00;;;;;;4937311;29;20801;-86
2023/07/20 06:55:43;;;;;;;2.13;1.90;;;24.00;94.70;;;;;;4936980;29;20455;-90
2023/07/20 06:58:10;;;;;;;2.00;1.90;;;23.90;94.70;;;;;;4947633;29;20456;-88
2023/07/20 07:00:38;;;;;;;1.77;1.60;;;23.80;94.80;;;;;;4956152;29;20537;-88
2023/07/20 07:03:05;;;;;;;2.47;1.90;;;23.70;95.00;;;;;;4956833;29;20542;-88
2023/07/20 07:05:37;;;;;;;2.90;1.97;;;23.70;95.00;;;;;;4955966;29;20489;-88
2023/07/20 07:08:04;;;;;;;2.80;1.83;;;23.70;95.30;;;;;;4955467;29;20480;-85
2023/07/20 07:10:31;;;;;;;5.90;1.87;;;23.70;95.40;;;;;;4941377;29;20450;-88
2023/07/20 07:12:58;;;;;;;2.43;1.50;;;23.70;95.40;;;;;;4936198;29;20503;-88
2023/07/20 07:15:25;;;;;;;2.30;1.83;;;23.70;95.30;;;;;;4936983;29;20475;-93
2023/07/20 07:17:54;;;;;;;1.87;1.67;;;23.80;95.60;;;;;;4936430;29;20453;-90
2023/07/20 07:20:21;;;;;;;1.77;1.67;;;23.70;95.00;;;;;;4935844;29;20451;-90
2023/07/20 07:22:48;;;;;;;2.57;1.57;;;23.70;94.20;;;;;;4936369;29;20457;-90
2023/07/20 07:25:16;;;;;;;1.60;1.40;;;23.70;94.70;;;;;;4941894;29;20938;-90
2023/07/20 07:27:43;;;;;;;1.83;1.73;;;23.60;94.70;;;;;;4955654;29;20508;-89
2023/07/20 07:30:10;;;;;;;1.40;1.30;;;23.60;95.20;;;;;;4955246;29;20510;-91
2023/07/20 07:32:37;;;;;;;2.30;1.53;;;23.60;95.60;;;;;;4955000;29;20457;-91
2023/07/20 07:35:06;;;;;;;2.00;1.80;;;23.70;95.50;;;;;;4955275;29;20539;-90
2023/07/20 07:37:46;;;;;;;1.90;1.80;;;23.60;95.30;;;;;;4955377;29;20463;-93
2023/07/20 07:40:13;;;;;;;1.60;1.50;;;23.60;95.50;;;;;;4954745;29;20459;-88
2023/07/20 07:42:40;;;;;;;2.00;1.47;;;23.50;95.40;;;;;;4955394;29;20462;-89
2023/07/20 07:45:08;;;;;;;1.50;1.40;;;23.60;96.20;;;;;;4955040;29;20501;-86
2023/07/20 07:47:35;;;;;;;2.40;2.20;;;23.60;96.00;;;;;;4955057;29;20445;-86
2023/07/20 07:50:01;;;;;;;3.40;1.90;;;23.60;96.20;;;;;;4954755;29;20459;-85
2023/07/20 07:52:29;;;;;;;2.63;2.43;;;23.70;96.30;;;;;;4954990;29;20903;-86
2023/07/20 07:54:56;;;;;;;2.30;2.10;;;23.70;96.30;;;;;;4955156;29;20445;-86
2023/07/20 07:57:23;;;;;;;4.30;2.30;;;23.70;96.20;;;;;;4948216;29;20446;-86
2023/07/20 07:59:50;;;;;;;2.57;2.37;;;23.70;96.10;;;;;;4945701;29;20449;-86
2023/07/20 08:02:17;;;;;;;3.23;2.00;;;23.70;95.90;;;;;;4954975;29;20521;-87
2023/07/20 08:04:43;;;;;;;2.53;2.30;;;23.80;96.20;;;;;;4954949;29;20512;-89
2023/07/20 08:07:10;;;;;;;3.33;2.10;;;23.80;96.20;;;;;;4954421;28;20521;-91
2023/07/20 08:09:38;;;;;;;4.77;1.80;;;23.80;95.60;;;;;;4943717;28;20996;-86
2023/07/20 08:12:06;;;;;;;2.67;1.70;;;23.80;95.10;;;;;;4973953;28;20448;-86
2023/07/20 08:14:33;;;;;;;3.03;1.50;;;23.80;95.60;;;;;;4969291;28;20445;-91
2023/07/20 08:19:44;;;;;;;2.57;1.60;;;23.80;95.30;;;;;;5099809;23;20494;-94
2023/07/20 08:22:12;;;;;;;1.80;1.50;;;23.80;95.10;;;;;;4936607;29;20520;-92
2023/07/20 08:24:42;;;;;;;1.77;1.00;;;23.70;96.00;;;;;;4938594;29;20873;-90
2023/07/20 08:27:09;;;;;;;5.27;1.50;;;23.70;95.60;;;;;;4939881;29;20933;-89
2023/07/20 08:29:37;;;;;;;1.67;1.17;;;23.70;95.50;;;;;;4939162;29;20571;-91
2023/07/20 08:32:05;;;;;;;3.83;1.60;;;23.70;95.30;;;;;;4940623;29;20456;-89
2023/07/20 08:34:32;;;;;;;6.20;1.77;;;23.80;95.40;;;;;;4942462;29;20458;-89
2023/07/20 08:37:00;;;;;;;7.87;1.67;;;23.70;94.10;;;;;;4942223;29;20445;-90
2023/07/20 08:39:27;;;;;;;4.10;1.63;;;23.80;94.40;;;;;;4941820;29;21001;-90
2023/07/20 08:41:56;;;;;;;4.50;1.50;;;23.80;94.40;;;;;;4941659;29;20506;-90
2023/07/20 08:44:25;;;;;;;1.60;1.30;;;23.90;94.50;;;;;;4941741;29;20996;-90
2023/07/20 08:46:53;;;;;;;2.90;1.23;;;23.90;94.40;;;;;;4941069;29;20462;-85
2023/07/20 08:49:20;;;;;;;4.07;1.20;;;24.00;94.50;;;;;;4938788;29;20509;-84
2023/07/20 08:51:49;;;;;;;2.70;1.47;;;24.00;94.50;;;;;;4938643;29;20448;-83
2023/07/20 08:54:17;;;;;;;2.90;1.40;;;24.00;94.60;;;;;;4938384;29;20458;-84
2023/07/20 08:56:47;;;;;;;1.33;1.23;;;24.00;94.40;;;;;;4939135;29;20506;-85
2023/07/20 08:59:17;;;;;;;1.30;1.10;;;24.10;94.40;;;;;;4939146;29;20951;-84
2023/07/20 09:01:45;;;;;;;8.03;2.13;;;24.10;94.20;;;;;;4939183;29;20463;-85
2023/07/20 09:04:13;;;;;;;2.40;1.33;;;24.10;94.30;;;;;;4939231;29;20479;-84
2023/07/20 09:06:40;;;;;;;2.40;1.57;;;24.10;94.10;;;;;;4938860;29;20470;-83
2023/07/20 09:09:07;;;;;;;2.03;1.20;;;24.10;94.00;;;;;;4939066;29;20449;-84
2023/07/20 09:11:34;;;;;;;4.30;1.40;;;24.10;93.90;;;;;;4938839;29;20493;-84
2023/07/20 09:14:05;;;;;;;1.30;1.20;;;24.20;94.10;;;;;;4938959;29;20489;-83
2023/07/20 09:16:47;;;;;;;3.40;1.43;;;24.20;94.20;;;;;;4939126;29;20446;-84
2023/07/20 09:19:15;;;;;;;4.67;1.40;;;24.20;94.20;;;;;;4939498;29;20451;-87
2023/07/20 09:21:46;;;;;;;1.60;1.30;;;24.20;94.10;;;;;;4939500;29;20840;-91
2023/07/20 09:24:14;;;;;;;4.60;1.37;;;24.20;94.10;;;;;;4939150;29;20486;-87
2023/07/20 09:26:44;;;;;;;3.97;1.20;;;24.30;94.20;;;;;;4938361;29;20792;-84
2023/07/20 09:29:11;;;;;;;2.60;1.20;;;24.20;94.10;;;;;;4938093;29;20453;-84
2023/07/20 09:31:39;;;;;;;1.30;1.07;;;24.20;94.10;;;;;;4937969;29;20451;-85
2023/07/20 09:34:06;;;;;;;1.60;1.07;;;24.20;94.00;;;;;;4937625;29;20977;-86
2023/07/20 09:36:35;;;;;;;1.83;1.10;;;24.30;94.00;;;;;;4937823;29;20558;-84
2023/07/20 09:39:03;;;;;;;1.80;1.27;;;24.30;93.80;;;;;;4938070;29;20443;-84
2023/07/20 09:41:30;;;;;;;3.10;1.00;;;24.30;93.90;;;;;;4939297;29;20460;-89
2023/07/20 09:43:57;;;;;;;1.40;1.10;;;24.30;93.90;;;;;;4938192;29;20438;-83
2023/07/20 09:46:24;;;;;;;1.30;1.13;;;24.30;93.90;;;;;;4937563;29;20534;-83
2023/07/20 09:48:55;;;;;;;1.37;1.17;;;24.30;93.90;;;;;;4937622;29;20447;-85
2023/07/20 09:51:24;;;;;;;1.60;1.00;;;24.30;93.80;;;;;;4937335;29;20503;-83
2023/07/20 09:53:54;;;;;;;2.47;1.03;;;24.30;93.90;;;;;;4937771;29;20443;-91
2023/07/20 09:56:23;;;;;;;1.20;1.10;;;24.50;94.00;;;;;;4937070;29;20505;-83
2023/07/20 09:58:50;;;;;;;3.80;1.23;;;24.30;93.90;;;;;;4922000;29;20442;-85
2023/07/20 10:01:21;;;;;;;1.50;1.40;;;24.30;93.80;;;;;;4938269;29;20454;-88
2023/07/20 10:03:51;;;;;;;1.30;1.13;;;24.40;94.00;;;;;;4937477;29;20477;-83
2023/07/20 10:06:24;;;;;;;1.47;1.20;;;24.40;93.90;;;;;;4937305;29;20492;-84
2023/07/20 10:08:54;;;;;;;2.40;1.10;;;24.40;94.00;;;;;;4937438;29;20448;-83
2023/07/20 10:11:27;;;;;;;1.60;1.30;;;24.40;93.90;;;;;;4937225;29;20849;-83
2023/07/20 10:13:57;;;;;;;1.40;1.30;;;24.40;94.00;;;;;;4937254;29;20439;-83
2023/07/20 10:16:29;;;;;;;1.70;1.33;;;24.40;94.10;;;;;;4936247;29;20555;-89
2023/07/20 10:19:02;;;;;;;3.23;1.40;;;24.40;94.10;;;;;;4937023;29;20465;-83
2023/07/20 10:21:31;;;;;;;1.57;1.47;;;24.40;94.10;;;;;;4936451;29;20561;-83
2023/07/20 10:23:59;;;;;;;1.60;1.50;;;24.40;94.10;;;;;;4937004;29;20449;-83
2023/07/20 10:26:26;;;;;;;2.03;1.70;;;24.40;94.10;;;;;;4936687;29;20484;-84
2023/07/20 10:28:53;;;;;;;3.30;1.33;;;24.40;94.10;;;;;;4931914;29;20454;-83
2023/07/20 10:31:21;;;;;;;4.47;1.50;;;24.40;94.10;;;;;;4936291;29;20450;-82
2023/07/20 10:33:50;;;;;;;1.30;1.20;;;24.40;94.30;;;;;;4935873;29;20451;-84
2023/07/20 10:36:17;;;;;;;1.60;1.50;;;24.40;94.00;;;;;;4935261;29;20493;-83
2023/07/20 10:38:55;;;;;;;7.50;1.40;;;24.40;94.00;;;;;;4936695;29;20457;-83
2023/07/20 10:41:24;;;;;;;1.83;1.70;;;24.40;93.80;;;;;;4936843;29;20506;-83
2023/07/20 10:43:51;;;;;;;3.03;1.47;;;24.40;93.90;;;;;;4937016;29;20449;-83
2023/07/20 10:46:43;;;;;;;1.27;1.17;;;24.40;93.90;;;;;;4936374;29;20494;-83
2023/07/20 10:49:11;;;;;;;7.07;1.90;;;24.40;93.80;;;;;;4936730;29;20503;-83
2023/07/20 10:51:42;;;;;;;2.90;1.50;;;24.40;93.90;;;;;;4935772;29;20450;-83
2023/07/20 10:54:34;;;;;;;1.93;1.40;;;24.40;93.90;;;;;;4935393;29;20515;-83
2023/07/20 10:57:30;;;;;;;2.43;1.37;;;24.40;93.90;;;;;;4935372;29;20465;-83
2023/07/20 11:00:10;;;;;;;5.10;1.60;;;24.40;93.80;;;;;;4935306;29;20528;-84
2023/07/20 11:02:44;;;;;;;1.40;1.30;;;24.40;93.70;;;;;;4935357;29;20457;-83
2023/07/20 11:05:35;;;;;;;1.60;1.30;;;24.40;93.80;;;;;;4935230;29;20508;-83
2023/07/20 11:08:05;;;;;;;1.90;1.23;;;24.40;93.60;;;;;;4935925;29;20454;-84
2023/07/20 11:10:33;;;;;;;4.93;1.20;;;24.40;93.60;;;;;;4935736;29;20446;-83
2023/07/20 11:13:27;;;;;;;1.20;1.10;;;24.40;93.90;;;;;;4935590;29;20443;-84
2023/07/20 11:16:07;;;;;;;1.27;1.17;;;24.50;93.80;;;;;;4902790;29;20533;-84
2023/07/20 11:18:39;;;;;;;1.40;1.10;;;24.40;93.90;;;;;;4936340;29;20445;-87
2023/07/20 11:21:09;;;;;;;2.07;1.20;;;24.50;93.70;;;;;;4929953;29;21056;-83
2023/07/20 11:23:43;;;;;;;4.37;1.63;;;24.40;93.90;;;;;;4938467;29;20442;-88
2023/07/20 11:26:12;;;;;;;2.80;1.20;;;24.40;93.80;;;;;;4938542;29;20501;-83
2023/07/20 11:28:42;;;;;;;2.83;1.23;;;24.50;93.70;;;;;;4939299;29;20520;-92
2023/07/20 11:31:09;;;;;;;1.30;1.20;;;24.50;93.80;;;;;;4941322;29;20449;-89
2023/07/20 11:33:36;;;;;;;2.90;1.20;;;24.50;93.90;;;;;;4943727;29;20447;-88
2023/07/20 11:36:03;;;;;;;2.60;1.20;;;24.50;93.50;;;;;;4935901;29;20463;-83
2023/07/20 11:38:29;;;;;;;1.47;1.20;;;24.50;93.70;;;;;;4950330;29;20454;-83
2023/07/20 11:40:58;;;;;;;1.50;1.40;;;24.50;93.70;;;;;;4955108;29;20459;-82
2023/07/20 11:43:26;;;;;;;1.40;1.23;;;24.50;93.40;;;;;;4955227;29;20967;-83
2023/07/20 11:45:53;;;;;;;4.20;1.10;;;24.50;93.40;;;;;;4955072;29;20493;-82
2023/07/20 11:48:19;;;;;;;1.60;1.33;;;24.50;93.50;;;;;;4955181;29;20453;-82
2023/07/20 11:50:46;;;;;;;3.93;1.40;;;24.50;93.60;;;;;;4954982;29;20443;-84
2023/07/20 11:53:13;;;;;;;3.23;1.33;;;24.50;93.60;;;;;;4954966;29;20454;-83
2023/07/20 11:55:41;;;;;;;1.27;1.17;;;24.50;93.50;;;;;;4966466;29;20449;-83
2023/07/20 11:58:10;;;;;;;1.87;1.00;;;24.50;93.60;;;;;;4956250;29;20451;-82
2023/07/20 12:00:40;;;;;;;1.70;1.30;;;24.50;93.60;;;;;;4955070;29;20470;-82
2023/07/20 12:03:07;;;;;;;1.43;1.23;;;24.50;93.50;;;;;;4954972;29;20448;-87
2023/07/20 12:05:34;;;;;;;1.73;1.30;;;24.50;93.30;;;;;;4956147;28;20477;-82
2023/07/20 12:08:01;;;;;;;2.50;1.20;;;24.50;93.40;;;;;;4958679;29;20442;-83
2023/07/20 12:10:29;;;;;;;1.30;1.03;;;24.50;93.40;;;;;;4958897;29;20441;-82
2023/07/20 12:13:02;;;;;;;1.60;1.07;;;24.50;93.50;;;;;;4958667;29;20508;-83
2023/07/20 12:15:30;;;;;;;1.20;1.10;;;24.50;93.30;;;;;;4958661;29;20956;-82
2023/07/20 12:18:00;;;;;;;1.10;0.97;;;24.50;93.50;;;;;;4958620;29;20804;-82
2023/07/20 12:20:28;;;;;;;2.37;1.77;;;24.50;93.40;;;;;;4958475;29;20485;-82
2023/07/20 12:22:58;;;;;;;1.27;1.17;;;24.50;93.30;;;;;;4958422;29;20445;-84
2023/07/20 12:25:24;;;;;;;5.40;1.40;;;24.50;93.40;;;;;;4958452;29;20504;-83
2023/07/20 12:27:51;;;;;;;2.00;1.20;;;24.60;93.50;;;;;;4958409;29;20805;-83
2023/07/20 12:30:18;;;;;;;1.00;0.90;;;24.50;93.30;;;;;;4958409;29;20449;-83
2023/07/20 12:32:45;;;;;;;1.30;1.10;;;24.50;93.30;;;;;;4958279;29;20448;-82
2023/07/20 12:35:14;;;;;;;2.00;1.40;;;24.50;93.40;;;;;;4958278;29;20450;-82
2023/07/20 12:37:41;;;;;;;1.33;1.23;;;24.50;93.30;;;;;;4958126;29;20466;-82
2023/07/20 12:40:10;;;;;;;2.10;1.30;;;24.50;93.40;;;;;;4958188;29;20497;-82
2023/07/20 12:42:38;;;;;;;1.60;0.90;;;24.50;93.60;;;;;;4958052;29;20446;-83
2023/07/20 12:45:05;;;;;;;1.20;1.00;;;24.50;93.70;;;;;;4958400;29;20446;-82
2023/07/20 12:47:32;;;;;;;1.30;1.20;;;24.50;93.50;;;;;;4958008;29;20926;-84
2023/07/20 12:50:00;;;;;;;1.30;1.10;;;24.50;93.40;;;;;;4958027;29;20804;-84
2023/07/20 12:52:28;;;;;;;1.50;1.10;;;24.50;93.30;;;;;;4957604;29;20456;-82
2023/07/20 12:54:57;;;;;;;2.10;1.40;;;24.50;93.40;;;;;;4957963;29;20439;-83
2023/07/20 12:57:23;;;;;;;1.10;1.00;;;24.50;93.40;;;;;;4957878;29;20442;-86
2023/07/20 12:59:50;;;;;;;1.30;1.20;;;24.50;93.60;;;;;;4957968;29;20918;-82
2023/07/20 13:02:17;;;;;;;1.27;1.00;;;24.50;93.40;;;;;;4957674;29;20450;-83
2023/07/20 13:04:44;;;;;;;2.70;1.03;;;24.50;93.50;;;;;;4957632;29;20472;-82
2023/07/20 13:07:12;;;;;;;1.23;1.00;;;24.50;93.20;;;;;;4957495;29;20549;-82
2023/07/20 13:09:40;;;;;;;1.60;1.30;;;24.50;93.30;;;;;;4957472;29;20476;-84
2023/07/20 13:12:08;;;;;;;1.60;1.30;;;24.60;93.50;;;;;;4957447;29;20446;-82
2023/07/20 13:14:35;;;;;;;1.10;0.90;;;24.50;93.50;;;;;;4957422;29;20443;-82
2023/07/20 13:17:01;;;;;;;1.47;1.10;;;24.50;93.50;;;;;;4956879;28;20470;-85
2023/07/20 13:19:28;;;;;;;1.10;1.00;;;24.60;93.50;;;;;;4957344;29;20442;-82
2023/07/20 13:21:55;;;;;;;4.93;0.97;;;24.60;93.50;;;;;;4957314;29;20469;-83
2023/07/20 13:24:22;;;;;;;1.20;1.10;;;24.60;93.50;;;;;;4957515;29;20468;-82
2023/07/20 13:26:51;;;;;;;1.30;1.00;;;24.60;93.50;;;;;;4957067;29;20486;-82
2023/07/20 13:29:18;;;;;;;1.10;1.00;;;24.60;93.70;;;;;;4957198;29;20447;-82
2023/07/20 13:31:46;;;;;;;1.20;1.00;;;24.60;93.60;;;;;;4956993;29;20972;-83
2023/07/20 13:34:12;;;;;;;2.13;1.00;;;24.50;93.40;;;;;;4957003;29;20439;-82
2023/07/20 13:36:39;;;;;;;4.40;1.00;;;24.60;93.50;;;;;;4956997;29;20471;-82
2023/07/20 13:39:06;;;;;;;3.57;1.17;;;24.60;93.50;;;;;;4957130;29;20446;-82
2023/07/20 13:41:33;;;;;;;1.20;1.10;;;24.60;93.40;;;;;;4957032;29;20445;-82
2023/07/20 13:44:01;;;;;;;1.13;1.03;;;24.60;93.40;;;;;;4956857;29;20513;-83
2023/07/20 13:46:28;;;;;;;1.20;0.90;;;24.60;93.40;;;;;;4956997;29;20490;-83
2023/07/20 13:48:54;;;;;;;1.10;1.00;;;24.60;93.50;;;;;;4957098;29;20442;-82
2023/07/20 13:51:21;;;;;;;1.00;0.80;;;24.60;93.50;;;;;;4956367;29;20446;-82
2023/07/20 13:53:48;;;;;;;1.10;0.90;;;24.60;93.70;;;;;;4956495;29;20449;-83
2023/07/20 13:56:15;;;;;;;2.20;1.00;;;24.50;93.50;;;;;;4956532;29;20453;-82
2023/07/20 13:58:42;;;;;;;1.63;1.00;;;24.50;93.80;;;;;;4956698;29;20446;-82
2023/07/20 14:01:10;;;;;;;1.20;1.03;;;24.60;93.50;;;;;;4956717;29;20447;-84
2023/07/20 14:03:37;;;;;;;3.50;1.63;;;24.50;93.40;;;;;;4942031;29;20466;-87
2023/07/20 14:06:04;;;;;;;1.10;0.90;;;24.60;93.50;;;;;;4936655;29;20492;-83
2023/07/20 14:08:31;;;;;;;6.00;1.40;;;24.60;93.50;;;;;;4937382;29;20529;-83
2023/07/20 14:10:58;;;;;;;3.70;1.23;;;24.60;93.40;;;;;;4936222;29;20462;-83
2023/07/20 14:13:24;;;;;;;1.20;0.80;;;24.50;93.20;;;;;;4935855;29;20452;-83
2023/07/20 14:15:51;;;;;;;2.03;0.90;;;24.60;93.50;;;;;;4936194;29;20450;-83
2023/07/20 14:18:19;;;;;;;2.10;0.87;;;24.60;93.50;;;;;;4936110;29;20458;-83
2023/07/20 14:20:46;;;;;;;2.33;1.30;;;24.60;93.50;;;;;;4935549;29;20485;-83
2023/07/20 14:23:13;;;;;;;7.23;1.10;;;24.60;93.50;;;;;;4936163;29;20459;-83
2023/07/20 14:25:40;;;;;;;1.20;1.00;;;24.60;93.40;;;;;;4936748;29;20451;-85
2023/07/20 14:28:07;;;;;;;1.10;0.90;;;24.60;93.50;;;;;;4936797;29;20443;-84
2023/07/20 14:30:33;;;;;;;2.13;1.00;;;24.60;93.40;;;;;;4936122;29;20453;-83
2023/07/20 14:33:00;;;;;;;1.00;0.90;;;24.60;93.40;;;;;;4936814;29;20443;-83
2023/07/20 14:35:28;;;;;;;1.40;1.07;;;24.60;93.30;;;;;;4936860;29;20443;-82
2023/07/20 14:37:55;;;;;;;2.47;1.00;;;24.60;93.40;;;;;;4937059;29;20801;-83
2023/07/20 14:40:22;;;;;;;2.27;1.10;;;24.60;93.40;;;;;;4936003;29;20827;-84
2023/07/20 14:42:49;;;;;;;1.13;1.00;;;24.60;93.50;;;;;;4936376;29;20449;-83
2023/07/20 14:45:16;;;;;;;1.70;0.90;;;24.60;93.60;;;;;;4935843;29;20454;-83
2023/07/20 14:47:42;;;;;;;1.47;1.00;;;24.60;93.40;;;;;;4935020;29;21057;-82
2023/07/20 14:50:10;;;;;;;1.83;1.10;;;24.60;93.40;;;;;;4936188;29;20950;-83
2023/07/20 14:52:38;;;;;;;2.90;1.00;;;24.60;93.40;;;;;;4935369;29;20454;-82
2023/07/20 14:55:06;;;;;;;1.50;1.10;;;24.60;93.30;;;;;;4935460;29;20458;-82
2023/07/20 14:57:33;;;;;;;1.10;0.83;;;24.60;93.30;;;;;;4935390;29;20446;-82
2023/07/20 14:59:59;;;;;;;1.53;1.10;;;24.60;93.40;;;;;;4935310;29;20443;-83
2023/07/20 15:02:26;;;;;;;1.20;0.80;;;24.60;93.40;;;;;;4935331;29;20443;-83
2023/07/20 15:04:53;;;;;;;2.13;0.90;;;24.60;93.30;;;;;;4935429;29;20540;-82
2023/07/20 15:07:22;;;;;;;4.23;1.00;;;24.60;93.20;;;;;;4934951;29;20504;-84
2023/07/20 15:09:50;;;;;;;2.13;0.97;;;24.60;93.00;;;;;;4936224;29;20474;-82
2023/07/20 15:12:17;;;;;;;4.33;0.93;;;24.60;93.00;;;;;;4936187;29;20453;-82
2023/07/20 15:14:44;;;;;;;1.97;1.20;;;24.60;93.00;;;;;;4936210;29;20466;-83
2023/07/20 15:17:12;;;;;;;2.40;1.00;;;24.60;92.80;;;;;;4936239;29;20449;-82
2023/07/20 15:19:39;;;;;;;1.50;1.00;;;24.60;92.90;;;;;;4936297;29;20455;-82
2023/07/20 15:22:07;;;;;;;1.50;0.97;;;24.60;92.90;;;;;;4936070;29;20478;-83
2023/07/20 15:24:34;;;;;;;1.03;0.90;;;24.60;93.00;;;;;;4936420;29;20450;-83
2023/07/20 15:27:02;;;;;;;1.50;0.93;;;24.60;92.90;;;;;;4936201;29;20496;-82
2023/07/20 15:29:29;;;;;;;1.30;1.20;;;24.60;93.00;;;;;;4936303;29;20448;-82
2023/07/20 15:31:56;;;;;;;1.20;0.97;;;24.60;93.00;;;;;;4934744;29;21007;-82
2023/07/20 15:34:23;;;;;;;3.10;0.90;;;24.60;93.00;;;;;;4934452;29;20462;-82
2023/07/20 15:36:50;;;;;;;1.33;0.90;;;24.60;92.90;;;;;;4934847;29;20467;-83
2023/07/20 15:39:17;;;;;;;1.30;0.90;;;24.60;92.90;;;;;;4934559;29;20483;-82
2023/07/20 15:41:44;;;;;;;3.00;0.93;;;24.60;92.90;;;;;;4937596;29;20453;-83
2023/07/20 15:44:13;;;;;;;1.37;1.00;;;24.50;92.70;;;;;;4938696;29;20501;-82
2023/07/20 15:46:48;;;;;;;1.10;0.90;;;24.60;92.90;;;;;;4939620;29;20490;-85
2023/07/20 15:49:15;;;;;;;1.60;1.07;;;24.60;92.90;;;;;;4939987;29;20451;-83
2023/07/20 15:51:42;;;;;;;1.40;1.00;;;24.60;92.90;;;;;;4939782;29;20946;-84
2023/07/20 15:54:10;;;;;;;1.10;0.93;;;24.60;92.80;;;;;;4939544;29;20880;-85
